Time;durP1;ratioP1;P1;durP2;ratioP2;P2;SDS_P1;SDS_P2;PMS_P1;PMS_P2;Temp;Humidity;BMP_temperature;BMP_pressure;BME280_temperature;BME280_humidity;BME280_pressure;Samples;Min_cycle;Max_cycle;Signal;HPM_P1;HPM_P2
2021/01/02 00:02:23;;;;;;;18.40;14.00;;;;;;;0.62;100.00;151528.81;5011929;28;20534;-90
2021/01/02 00:05:06;;;;;;;18.77;14.47;;;;;;;0.59;100.00;151521.13;4997363;28;20509;-89
2021/01/02 00:08:03;;;;;;;21.37;15.57;;;;;;;0.62;100.00;151528.81;5011701;28;20952;-90
2021/01/02 00:10:45;;;;;;;24.13;15.87;;;;;;;0.58;100.00;151518.59;4996643;28;20862;-89
2021/01/02 00:13:47;;;;;;;20.20;13.57;;;;;;;0.59;100.00;151522.41;5011715;28;20449;-89
2021/01/02 00:16:44;;;;;;;20.13;14.13;;;;;;;0.55;100.00;151512.16;5011364;28;20916;-90
2021/01/02 00:19:44;;;;;;;19.77;14.07;;;;;;;0.54;100.00;151508.28;4992622;28;20447;-90
2021/01/02 00:22:41;;;;;;;17.13;13.73;;;;;;;0.55;100.00;151510.88;4981682;28;20446;-90
2021/01/02 00:25:17;;;;;;;19.43;14.10;;;;;;;0.59;100.00;151521.13;5011603;28;20817;-90
2021/01/02 00:28:05;;;;;;;18.40;14.40;;;;;;;0.59;100.00;151521.13;5027856;28;20472;-90
2021/01/02 00:31:07;;;;;;;19.60;13.93;;;;;;;0.54;100.00;151508.28;4991910;28;20446;-89
2021/01/02 00:34:02;;;;;;;15.10;12.90;;;;;;;0.55;100.00;151510.88;5000748;28;20845;-89
2021/01/02 00:36:41;;;;;;;21.33;14.03;;;;;;;0.57;100.00;151516.00;5018691;28;20445;-89
2021/01/02 00:39:31;;;;;;;19.10;13.80;;;;;;;0.59;100.00;151521.13;5023376;28;20807;-90
2021/01/02 00:42:07;;;;;;;17.93;13.03;;;;;;;0.60;100.00;151523.72;5014176;28;20465;-90
2021/01/02 00:44:44;;;;;;;19.70;13.03;;;;;;;0.58;100.00;151518.59;5011604;28;20549;-90
2021/01/02 00:47:20;;;;;;;19.83;14.07;;;;;;;0.60;100.00;151523.72;5011129;28;20434;-90
2021/01/02 00:49:56;;;;;;;21.03;13.30;;;;;;;0.60;100.00;151523.72;5011140;28;20478;-90
2021/01/02 00:53:02;;;;;;;18.47;12.87;;;;;;;0.60;100.00;151523.72;5012643;28;20453;-90
2021/01/02 00:56:04;;;;;;;23.43;14.37;;;;;;;0.63;100.00;151531.41;4995875;28;20441;-90
2021/01/02 00:59:34;;;;;;;17.37;12.17;;;;;;;0.63;100.00;151530.13;4996175;28;20444;-90
2021/01/02 01:02:59;;;;;;;19.13;13.03;;;;;;;0.65;100.00;151536.53;4995590;28;20813;-89
2021/01/02 01:05:37;;;;;;;15.23;10.63;;;;;;;0.64;100.00;151532.72;5052391;28;20464;-90
2021/01/02 01:08:15;;;;;;;20.83;13.70;;;;;;;0.62;100.00;151528.81;5026445;28;20444;-90
2021/01/02 01:10:51;;;;;;;17.77;11.67;;;;;;;0.63;100.00;151530.13;5027351;28;20439;-90
2021/01/02 01:13:26;;;;;;;17.17;12.27;;;;;;;0.65;100.00;151535.25;5011111;28;20461;-90
2021/01/02 01:16:02;;;;;;;17.43;13.20;;;;;;;0.62;100.00;151528.81;5011380;28;22263;-90
2021/01/02 01:18:44;;;;;;;18.90;11.30;;;;;;;0.65;100.00;151535.25;5011140;28;20446;-90
2021/01/02 01:21:21;;;;;;;16.83;10.00;;;;;;;0.64;100.00;151533.94;5010693;28;20436;-90
2021/01/02 01:24:07;;;;;;;19.87;12.73;;;;;;;0.72;100.00;151554.50;5027527;28;20847;-90
2021/01/02 01:27:05;;;;;;;18.83;13.40;;;;;;;0.68;100.00;151542.97;5010765;28;20439;-90
2021/01/02 01:29:43;;;;;;;17.40;12.43;;;;;;;0.60;100.00;151523.72;4979970;28;20443;-90
2021/01/02 01:32:21;;;;;;;18.23;12.90;;;;;;;0.58;100.00;151518.59;5010193;28;20464;-90
2021/01/02 01:34:58;;;;;;;19.07;13.30;;;;;;;0.59;100.00;151521.13;4995577;28;20532;-90
2021/01/02 01:37:34;;;;;;;15.67;12.50;;;;;;;0.61;100.00;151526.25;5010267;28;20479;-90
2021/01/02 01:40:14;;;;;;;17.53;12.50;;;;;;;0.61;100.00;151527.53;5010536;28;20475;-89
2021/01/02 01:43:02;;;;;;;15.30;12.10;;;;;;;0.64;100.00;151532.72;5010187;28;20558;-90
2021/01/02 01:46:13;;;;;;;15.97;11.70;;;;;;;0.66;100.00;151537.84;5010493;28;20472;-90
2021/01/02 01:49:10;;;;;;;12.70;11.10;;;;;;;0.67;100.00;151540.38;5009660;28;20442;-90
2021/01/02 01:51:56;;;;;;;17.30;11.63;;;;;;;0.64;100.00;151533.94;5010723;28;20468;-90
2021/01/02 01:54:55;;;;;;;16.20;10.90;;;;;;;0.66;100.00;151539.13;4991997;28;20776;-90
2021/01/02 01:57:31;;;;;;;18.30;12.37;;;;;;;0.70;100.00;151548.09;4996483;28;20449;-90
2021/01/02 02:00:16;;;;;;;19.37;12.27;;;;;;;0.66;100.00;151539.13;5010412;28;20438;-90
2021/01/02 02:03:03;;;;;;;18.53;12.27;;;;;;;0.63;100.00;151531.41;4999368;28;20450;-90
2021/01/02 02:05:52;;;;;;;18.20;12.53;;;;;;;0.61;100.00;151526.25;5010635;28;20471;-90
2021/01/02 02:08:45;;;;;;;20.00;12.30;;;;;;;0.64;100.00;151533.94;5010125;28;20452;-90
2021/01/02 02:11:42;;;;;;;20.67;13.57;;;;;;;0.65;100.00;151536.53;5009815;28;20446;-90
2021/01/02 02:14:32;;;;;;;17.77;12.17;;;;;;;0.63;100.00;151531.41;4990835;28;20461;-90
2021/01/02 02:17:09;;;;;;;18.67;12.20;;;;;;;0.63;100.00;151530.13;4990938;28;20431;-90
2021/01/02 02:19:55;;;;;;;17.60;12.37;;;;;;;0.65;100.00;151536.53;5009759;28;20446;-90
2021/01/02 02:22:35;;;;;;;17.10;12.17;;;;;;;0.66;100.00;151539.13;5010973;28;20439;-90
2021/01/02 02:25:12;;;;;;;17.80;12.20;;;;;;;0.65;100.00;151536.53;5009995;28;20468;-90
2021/01/02 02:27:51;;;;;;;18.20;10.70;;;;;;;0.65;100.00;151535.25;5009760;28;20442;-90
2021/01/02 02:30:29;;;;;;;15.90;10.50;;;;;;;0.63;100.00;151531.41;4994998;28;20441;-90
2021/01/02 02:33:08;;;;;;;17.57;11.73;;;;;;;0.65;100.00;151535.25;5011175;28;20448;-90
2021/01/02 02:35:44;;;;;;;15.63;11.43;;;;;;;0.64;100.00;151532.72;4994660;28;20442;-90
2021/01/02 02:38:19;;;;;;;15.80;11.50;;;;;;;0.63;100.00;151531.41;5010136;28;20452;-90
2021/01/02 02:40:55;;;;;;;16.73;12.20;;;;;;;0.65;100.00;151535.25;4994521;28;20564;-90
2021/01/02 02:43:32;;;;;;;17.70;12.00;;;;;;;0.66;100.00;151537.84;5011091;28;20518;-90
2021/01/02 02:46:12;;;;;;;18.90;11.83;;;;;;;0.64;100.00;151533.94;5009750;28;20550;-90
2021/01/02 02:48:48;;;;;;;18.67;12.47;;;;;;;0.67;100.00;151541.66;5009616;28;20460;-90
2021/01/02 02:51:24;;;;;;;15.97;10.97;;;;;;;0.65;100.00;151536.53;5009704;28;20480;-90
2021/01/02 02:53:59;;;;;;;17.40;10.80;;;;;;;0.65;100.00;151536.53;5009677;28;20445;-90
2021/01/02 02:56:34;;;;;;;19.67;11.50;;;;;;;0.66;100.00;151537.84;5009645;28;20587;-90
2021/01/02 02:59:12;;;;;;;14.07;10.73;;;;;;;0.66;100.00;151537.84;5011146;28;20438;-90
2021/01/02 03:01:48;;;;;;;19.70;12.83;;;;;;;0.64;100.00;151533.94;5009569;28;20533;-90
2021/01/02 03:04:23;;;;;;;17.60;11.00;;;;;;;0.61;100.00;151526.25;4996487;28;20462;-90
2021/01/02 03:07:02;;;;;;;17.97;11.93;;;;;;;0.59;100.00;151521.13;5026320;28;20928;-90
2021/01/02 03:09:38;;;;;;;19.47;12.80;;;;;;;0.58;100.00;151519.81;4994254;28;20445;-90
2021/01/02 03:12:13;;;;;;;21.03;13.33;;;;;;;0.61;100.00;151526.25;5009499;28;20436;-90
2021/01/02 03:14:58;;;;;;;20.50;13.70;;;;;;;0.58;100.00;151518.59;5027257;28;20433;-89
2021/01/02 03:17:33;;;;;;;17.67;12.20;;;;;;;0.56;100.00;151513.41;5041115;28;20457;-90
2021/01/02 03:20:10;;;;;;;21.07;14.27;;;;;;;0.53;100.00;151507.00;5078572;28;20787;-90
2021/01/02 03:22:47;;;;;;;21.03;14.37;;;;;;;0.50;100.00;151498.03;5025589;28;20449;-90
2021/01/02 03:25:22;;;;;;;17.60;12.43;;;;;;;0.45;100.00;151485.22;5030573;28;20447;-90
2021/01/02 03:27:58;;;;;;;23.80;14.63;;;;;;;0.44;100.00;151483.91;5023610;28;20438;-89
2021/01/02 03:30:34;;;;;;;22.57;14.13;;;;;;;0.42;100.00;151477.50;5014772;28;20429;-90
2021/01/02 03:33:10;;;;;;;21.73;14.20;;;;;;;0.36;100.00;151462.09;5013977;28;20466;-90
2021/01/02 03:35:45;;;;;;;18.87;13.43;;;;;;;0.36;100.00;151463.38;5012571;28;20540;-90
2021/01/02 03:38:20;;;;;;;18.80;13.90;;;;;;;0.35;100.00;151460.78;4997419;28;20979;-90
2021/01/02 03:40:55;;;;;;;18.90;12.87;;;;;;;0.39;100.00;151469.78;5013537;28;20467;-90
2021/01/02 03:43:31;;;;;;;19.00;12.90;;;;;;;0.40;100.00;151473.63;4997527;28;20455;-90
2021/01/02 03:46:07;;;;;;;18.77;14.00;;;;;;;0.43;100.00;151481.31;5013127;28;20463;-89
2021/01/02 03:48:42;;;;;;;19.60;12.90;;;;;;;0.45;100.00;151485.22;4997203;28;20453;-90
2021/01/02 03:51:22;;;;;;;21.60;13.60;;;;;;;0.46;100.00;151487.75;5011822;28;20456;-90
2021/01/02 03:53:57;;;;;;;21.50;13.40;;;;;;;0.42;100.00;151477.50;5012231;28;20444;-90
2021/01/02 03:56:33;;;;;;;18.10;13.10;;;;;;;0.42;100.00;151478.78;5012562;28;20435;-90
2021/01/02 03:59:08;;;;;;;20.47;13.60;;;;;;;0.40;100.00;151472.31;5010847;28;20452;-90
2021/01/02 04:01:44;;;;;;;21.20;14.30;;;;;;;0.35;100.00;151459.50;4995952;28;20879;-90
2021/01/02 04:04:19;;;;;;;21.10;13.87;;;;;;;0.36;100.00;151462.09;5013814;28;20446;-90
2021/01/02 04:06:55;;;;;;;18.07;13.00;;;;;;;0.38;100.00;151467.19;4996827;28;20429;-90
2021/01/02 04:09:30;;;;;;;18.30;12.00;;;;;;;0.32;100.00;151453.06;5012006;28;20436;-89
2021/01/02 04:12:05;;;;;;;20.13;14.40;;;;;;;0.33;100.00;151455.66;5011911;28;20443;-90
2021/01/02 04:14:40;;;;;;;20.20;13.13;;;;;;;0.34;100.00;151458.25;5011971;28;20848;-90
2021/01/02 04:17:16;;;;;;;20.20;13.00;;;;;;;0.35;100.00;151460.78;4997011;28;20416;-90
2021/01/02 04:19:53;;;;;;;18.97;11.60;;;;;;;0.34;100.00;151458.25;4996843;28;20449;-90
2021/01/02 04:22:30;;;;;;;19.07;12.50;;;;;;;0.34;100.00;151458.25;5011706;28;20542;-90
2021/01/02 04:25:07;;;;;;;22.20;14.10;;;;;;;0.32;100.00;151453.06;4992387;28;20527;-90
2021/01/02 04:27:43;;;;;;;19.17;13.10;;;;;;;0.33;100.00;151454.38;4998281;28;20452;-90
2021/01/02 04:30:19;;;;;;;19.20;13.10;;;;;;;0.34;100.00;151456.97;5011386;28;20499;-89
2021/01/02 04:32:55;;;;;;;19.57;13.20;;;;;;;0.34;100.00;151458.25;5011426;28;20491;-90
2021/01/02 04:35:31;;;;;;;22.90;14.37;;;;;;;0.37;100.00;151464.66;5011702;28;20811;-90
2021/01/02 04:38:06;;;;;;;17.17;12.97;;;;;;;0.34;100.00;151456.97;5011393;28;20451;-90
2021/01/02 04:40:41;;;;;;;16.63;12.20;;;;;;;0.35;100.00;151459.50;5011592;28;20530;-89
2021/01/02 04:43:16;;;;;;;20.93;14.37;;;;;;;0.37;100.00;151464.66;5012799;28;20804;-90
2021/01/02 04:45:54;;;;;;;22.23;14.53;;;;;;;0.39;100.00;151469.78;5012490;28;20562;-90
2021/01/02 04:48:30;;;;;;;17.00;13.43;;;;;;;0.36;100.00;151462.09;5011477;28;20443;-90
2021/01/02 04:51:07;;;;;;;20.27;14.47;;;;;;;0.31;100.00;151449.25;5011703;28;20433;-89
2021/01/02 04:53:43;;;;;;;22.03;13.87;;;;;;;0.30;100.00;151446.66;5012709;28;20472;-90
2021/01/02 04:56:19;;;;;;;20.27;14.70;;;;;;;0.31;100.00;151449.25;5011099;28;20437;-90
2021/01/02 04:58:54;;;;;;;24.80;15.70;;;;;;;0.23;100.00;151428.72;5011531;28;20471;-90
2021/01/02 05:01:29;;;;;;;19.93;14.30;;;;;;;0.27;100.00;151438.97;5011413;28;20436;-90
2021/01/02 05:04:06;;;;;;;26.10;15.80;;;;;;;0.23;100.00;151430.00;5011208;28;20461;-90
2021/01/02 05:06:42;;;;;;;25.13;15.57;;;;;;;0.25;100.00;151435.13;5011033;28;20460;-90
2021/01/02 05:09:17;;;;;;;23.33;16.47;;;;;;;0.20;100.00;151422.28;5011198;28;20452;-89
2021/01/02 05:11:53;;;;;;;25.00;15.20;;;;;;;0.19;100.00;151419.72;4995701;28;20446;-89
2021/01/02 05:14:28;;;;;;;31.60;18.97;;;;;;;0.13;100.00;151404.34;5011051;28;20444;-89
2021/01/02 05:17:03;;;;;;;24.97;17.60;;;;;;;0.15;100.00;151408.19;5011236;28;20788;-90
2021/01/02 05:19:39;;;;;;;31.07;17.67;;;;;;;0.14;100.00;151406.88;5010919;28;20468;-90
2021/01/02 05:22:23;;;;;;;45.13;21.20;;;;;;;0.16;100.00;151410.75;5010789;28;20447;-89
2021/01/02 05:25:12;;;;;;;50.73;19.97;;;;;;;0.18;100.00;151415.88;4995591;28;20467;-90
2021/01/02 05:27:49;;;;;;;55.07;19.37;;;;;;;0.18;100.00;151417.19;4995820;28;21016;-89
2021/01/02 05:30:26;;;;;;;51.73;21.60;;;;;;;0.15;100.00;151408.19;5010755;28;20471;-90
2021/01/02 05:33:08;;;;;;;30.23;19.10;;;;;;;0.12;100.00;151401.75;5010807;28;20452;-89
2021/01/02 05:35:47;;;;;;;55.67;21.80;;;;;;;0.11;100.00;151397.94;5010703;28;20440;-90
2021/01/02 05:38:23;;;;;;;48.87;22.03;;;;;;;0.11;100.00;151399.16;5010285;28;20449;-90
2021/01/02 05:40:59;;;;;;;40.07;20.50;;;;;;;0.13;100.00;151403.06;5010475;28;20475;-89
2021/01/02 05:43:35;;;;;;;32.10;18.47;;;;;;;0.12;100.00;151400.47;5010620;28;20448;-89
2021/01/02 05:46:10;;;;;;;82.13;21.77;;;;;;;0.09;100.00;151392.75;5011755;28;20462;-89
2021/01/02 05:48:45;;;;;;;33.27;18.90;;;;;;;0.09;100.00;151394.06;5010485;28;20456;-89
2021/01/02 05:51:24;;;;;;;71.87;20.80;;;;;;;0.02;100.00;151376.09;5003681;28;20950;-89
2021/01/02 05:54:07;;;;;;;59.00;21.30;;;;;;;-0.04;100.00;151361.97;5007173;28;20847;-90
2021/01/02 05:56:46;;;;;;;67.63;19.60;;;;;;;-0.04;100.00;151361.97;5022166;28;20445;-90
2021/01/02 05:59:35;;;;;;;71.87;18.57;;;;;;;-0.02;100.00;151367.09;4992696;28;20436;-89
2021/01/02 06:02:21;;;;;;;50.77;16.83;;;;;;;-0.02;100.00;151367.09;4993616;28;20431;-90
2021/01/02 06:04:58;;;;;;;47.43;17.57;;;;;;;-0.05;100.00;151359.41;5011009;28;20481;-89
2021/01/02 06:07:50;;;;;;;57.73;19.90;;;;;;;-0.07;100.00;151352.97;5016793;28;20468;-89
2021/01/02 06:10:27;;;;;;;30.17;15.83;;;;;;;-0.06;100.00;151356.88;5012147;28;20483;-89
2021/01/02 06:13:03;;;;;;;33.20;16.20;;;;;;;0.00;100.00;151370.97;5006819;28;20436;-90
2021/01/02 06:15:38;;;;;;;29.67;15.67;;;;;;;0.04;100.00;151381.22;5004464;28;20426;-89
2021/01/02 06:18:14;;;;;;;23.60;15.20;;;;;;;0.05;100.00;151382.50;5014277;28;20444;-89
2021/01/02 06:20:49;;;;;;;23.50;13.00;;;;;;;0.05;100.00;151382.50;4995091;28;20432;-90
2021/01/02 06:23:26;;;;;;;19.03;12.40;;;;;;;0.05;100.00;151382.50;4994964;28;20450;-90
2021/01/02 06:26:04;;;;;;;25.63;13.10;;;;;;;0.00;100.00;151370.97;4994589;28;20563;-90
2021/01/02 06:28:41;;;;;;;23.47;12.80;;;;;;;-0.01;100.00;151369.69;5010253;28;20429;-89
2021/01/02 06:31:17;;;;;;;28.53;13.40;;;;;;;0.03;100.00;151377.41;4995071;28;20788;-90
2021/01/02 06:33:52;;;;;;;40.80;12.70;;;;;;;0.00;100.00;151370.97;5009997;28;20452;-89
2021/01/02 06:36:29;;;;;;;21.80;12.03;;;;;;;-0.03;100.00;151364.53;5009690;28;20789;-90
2021/01/02 06:39:22;;;;;;;19.70;12.10;;;;;;;-0.02;100.00;151367.09;5009843;28;20759;-90
2021/01/02 06:41:58;;;;;;;18.40;11.57;;;;;;;0.04;100.00;151381.22;4995387;28;20468;-90
2021/01/02 06:44:41;;;;;;;27.00;14.10;;;;;;;0.06;100.00;151385.06;5009688;28;20435;-90
2021/01/02 06:47:18;;;;;;;24.53;12.37;;;;;;;0.04;100.00;151381.22;4994407;28;20480;-90
2021/01/02 06:49:54;;;;;;;28.20;15.03;;;;;;;0.04;100.00;151379.94;5012147;28;20515;-90
2021/01/02 06:52:31;;;;;;;23.70;12.50;;;;;;;0.00;100.00;151372.22;5014574;28;20432;-90
2021/01/02 06:55:23;;;;;;;52.57;14.63;;;;;;;-0.06;100.00;151356.88;5012926;28;20436;-90
2021/01/02 06:58:14;;;;;;;25.70;14.00;;;;;;;-0.02;100.00;151367.09;5013341;28;20459;-90
2021/01/02 07:00:49;;;;;;;22.27;10.63;;;;;;;-0.07;100.00;151354.28;5014241;28;20832;-90
2021/01/02 07:03:46;;;;;;;53.97;14.77;;;;;;;-0.09;100.00;151349.16;5014469;28;20439;-89
2021/01/02 07:06:24;;;;;;;21.00;11.20;;;;;;;-0.07;100.00;151352.97;4993816;28;20890;-90
2021/01/02 07:09:01;;;;;;;22.87;12.77;;;;;;;-0.02;100.00;151365.81;5011015;28;20945;-90
2021/01/02 07:11:38;;;;;;;19.97;12.50;;;;;;;0.00;100.00;151372.22;5013218;28;20443;-90
2021/01/02 07:14:26;;;;;;;20.40;11.57;;;;;;;0.03;100.00;151378.63;5012720;28;20446;-90
2021/01/02 07:17:04;;;;;;;23.80;13.57;;;;;;;0.02;100.00;151376.09;5013138;28;20874;-90
2021/01/02 07:19:46;;;;;;;22.60;11.40;;;;;;;-0.03;100.00;151363.28;5012756;28;20524;-90
2021/01/02 07:22:25;;;;;;;23.40;13.90;;;;;;;-0.04;100.00;151361.97;5013887;28;20457;-90
2021/01/02 07:25:03;;;;;;;24.53;13.70;;;;;;;-0.07;100.00;151354.28;5002977;28;20542;-90
2021/01/02 07:27:40;;;;;;;21.27;11.53;;;;;;;-0.02;100.00;151367.09;4994255;28;20441;-90
2021/01/02 07:30:16;;;;;;;20.40;11.90;;;;;;;-0.10;100.00;151346.56;5023415;28;20944;-90
2021/01/02 07:32:52;;;;;;;19.83;11.80;;;;;;;-0.09;100.00;151347.88;5012985;28;20452;-90
2021/01/02 07:35:27;;;;;;;22.07;13.53;;;;;;;-0.05;100.00;151358.09;5012424;28;20432;-90
2021/01/02 07:38:02;;;;;;;19.03;12.20;;;;;;;-0.01;100.00;151368.41;4997357;28;20446;-90
2021/01/02 07:40:38;;;;;;;19.23;12.20;;;;;;;-0.01;100.00;151369.69;4997279;28;20823;-89
2021/01/02 07:43:14;;;;;;;24.80;14.97;;;;;;;0.03;100.00;151377.41;5008735;28;20471;-90
2021/01/02 07:45:49;;;;;;;18.03;10.97;;;;;;;-0.02;100.00;151367.09;5012278;28;20563;-90
2021/01/02 07:48:24;;;;;;;22.30;12.27;;;;;;;-0.01;100.00;151369.69;5011021;28;20447;-90
2021/01/02 07:51:00;;;;;;;22.63;12.97;;;;;;;-0.09;100.00;151349.16;5028651;28;20778;-87
2021/01/02 07:53:35;;;;;;;22.23;11.13;;;;;;;-0.06;100.00;151355.56;5012204;28;20448;-86
2021/01/02 07:56:10;;;;;;;21.63;12.97;;;;;;;-0.02;100.00;151367.09;5012914;28;20492;-86
2021/01/02 07:58:47;;;;;;;30.60;12.57;;;;;;;0.00;100.00;151370.97;5011844;28;20457;-86
2021/01/02 08:01:22;;;;;;;24.60;12.47;;;;;;;0.00;100.00;151372.22;4977260;28;20445;-87
2021/01/02 08:03:57;;;;;;;24.93;13.50;;;;;;;-0.03;100.00;151364.53;4994436;28;20956;-86
2021/01/02 08:06:33;;;;;;;17.33;12.07;;;;;;;0.03;100.00;151377.41;5009889;28;20465;-86
2021/01/02 08:09:08;;;;;;;20.50;12.50;;;;;;;-0.02;100.00;151367.09;5006570;28;20809;-86
2021/01/02 08:11:48;;;;;;;19.07;12.77;;;;;;;0.00;100.00;151372.22;5011363;28;20509;-87
2021/01/02 08:14:26;;;;;;;21.73;12.73;;;;;;;0.03;100.00;151377.41;5011701;28;20472;-87
2021/01/02 08:17:04;;;;;;;16.70;11.90;;;;;;;0.02;100.00;151374.81;5010114;28;20445;-86
2021/01/02 08:19:42;;;;;;;17.20;11.70;;;;;;;-0.03;100.00;151363.28;4995192;28;20437;-87
2021/01/02 08:22:30;;;;;;;19.80;11.93;;;;;;;-0.01;100.00;151369.69;5010436;28;20436;-87
2021/01/02 08:25:09;;;;;;;20.90;13.03;;;;;;;0.02;100.00;151376.09;4993159;28;20439;-87
2021/01/02 08:27:46;;;;;;;21.50;12.50;;;;;;;0.02;100.00;151374.81;4984156;28;20449;-87
2021/01/02 08:30:23;;;;;;;20.27;11.73;;;;;;;0.05;100.00;151382.50;5011226;28;20455;-87
2021/01/02 08:32:59;;;;;;;18.20;11.90;;;;;;;0.09;100.00;151394.06;5009933;28;20451;-87
2021/01/02 08:35:36;;;;;;;20.33;12.60;;;;;;;0.06;100.00;151386.34;4997426;28;20449;-87
2021/01/02 08:38:12;;;;;;;21.47;13.80;;;;;;;0.08;100.00;151390.22;5014331;28;20460;-87
2021/01/02 08:40:49;;;;;;;19.70;11.80;;;;;;;0.09;100.00;151392.75;5011034;28;20477;-87
2021/01/02 08:43:26;;;;;;;15.63;10.97;;;;;;;0.13;100.00;151403.06;5012519;28;20557;-87
2021/01/02 08:46:04;;;;;;;22.60;12.67;;;;;;;0.12;100.00;151400.47;5029652;28;20476;-87
2021/01/02 08:48:45;;;;;;;24.60;12.13;;;;;;;0.15;100.00;151408.19;5010444;28;20461;-87
2021/01/02 08:51:24;;;;;;;23.90;13.77;;;;;;;0.14;100.00;151405.59;5013598;28;20752;-87
2021/01/02 08:54:13;;;;;;;21.83;14.07;;;;;;;0.13;100.00;151404.34;5010204;28;20457;-87
2021/01/02 08:56:49;;;;;;;20.13;12.80;;;;;;;0.13;100.00;151403.06;5041792;28;20431;-86
2021/01/02 08:59:28;;;;;;;20.27;13.47;;;;;;;0.09;100.00;151392.75;5019569;28;20450;-87
2021/01/02 09:02:16;;;;;;;22.33;14.10;;;;;;;0.13;100.00;151403.06;5012531;28;20440;-87
2021/01/02 09:05:06;;;;;;;23.13;14.23;;;;;;;0.12;100.00;151401.75;5010810;28;20805;-87
2021/01/02 09:07:53;;;;;;;21.70;13.60;;;;;;;0.12;100.00;151400.47;5013912;28;20443;-86
2021/01/02 09:10:31;;;;;;;23.53;14.50;;;;;;;0.12;100.00;151400.47;5010434;28;20457;-86
2021/01/02 09:13:11;;;;;;;21.20;13.73;;;;;;;0.12;100.00;151401.75;5017375;28;20437;-87
2021/01/02 09:15:57;;;;;;;19.27;12.40;;;;;;;0.04;100.00;151381.22;5004295;28;20432;-87
2021/01/02 09:18:51;;;;;;;20.53;13.20;;;;;;;0.07;100.00;151387.63;5009501;28;20836;-87
2021/01/02 09:21:27;;;;;;;16.10;12.00;;;;;;;0.10;100.00;151395.34;4998210;28;20451;-87
2021/01/02 09:24:02;;;;;;;25.10;14.93;;;;;;;0.12;100.00;151400.47;5011297;28;20456;-87
2021/01/02 09:26:38;;;;;;;20.27;12.70;;;;;;;0.14;100.00;151405.59;5009130;28;20554;-87
2021/01/02 09:29:14;;;;;;;20.03;12.87;;;;;;;0.11;100.00;151397.94;5010203;28;20448;-87
2021/01/02 09:31:50;;;;;;;17.50;11.73;;;;;;;0.11;100.00;151397.94;5010561;28;20445;-87
2021/01/02 09:34:26;;;;;;;20.73;13.00;;;;;;;0.12;100.00;151400.47;5007867;28;20466;-87
2021/01/02 09:37:02;;;;;;;16.00;11.97;;;;;;;0.10;100.00;151395.34;5007611;28;20435;-88
2021/01/02 09:39:38;;;;;;;22.53;12.90;;;;;;;0.13;100.00;151403.06;5009760;28;20454;-88
2021/01/02 09:42:13;;;;;;;20.63;12.17;;;;;;;0.07;100.00;151387.63;5008847;28;20501;-87
2021/01/02 09:44:48;;;;;;;23.97;13.33;;;;;;;-0.01;100.00;151369.69;5007367;28;20519;-88
2021/01/02 09:47:23;;;;;;;25.00;13.57;;;;;;;0.05;100.00;151382.50;5018404;28;22295;-88
2021/01/02 09:49:59;;;;;;;20.97;13.80;;;;;;;0.09;100.00;151394.06;5010015;28;20998;-88
2021/01/02 09:52:34;;;;;;;20.60;13.23;;;;;;;0.10;100.00;151395.34;5009806;28;20452;-88
2021/01/02 09:55:12;;;;;;;20.83;14.00;;;;;;;0.14;100.00;151406.88;5010244;28;20772;-88
2021/01/02 09:57:48;;;;;;;26.47;15.37;;;;;;;0.16;100.00;151410.75;5008899;28;20460;-89
2021/01/02 10:00:24;;;;;;;24.23;14.30;;;;;;;0.11;100.00;151397.94;5010018;28;20452;-88
2021/01/02 10:02:59;;;;;;;18.63;13.73;;;;;;;0.15;100.00;151408.19;5019557;28;20825;-89
2021/01/02 10:05:35;;;;;;;22.30;13.53;;;;;;;0.10;100.00;151396.63;5018270;28;20539;-89
2021/01/02 10:08:11;;;;;;;23.87;14.50;;;;;;;0.10;100.00;151395.34;5010375;28;20785;-89
2021/01/02 10:10:47;;;;;;;19.80;13.03;;;;;;;0.09;100.00;151392.75;5010270;28;20434;-89
2021/01/02 10:13:23;;;;;;;22.90;14.40;;;;;;;0.12;100.00;151400.47;4994765;28;20539;-89
2021/01/02 10:15:58;;;;;;;21.07;14.20;;;;;;;0.09;100.00;151392.75;5010061;28;20439;-89
2021/01/02 10:18:34;;;;;;;21.70;14.50;;;;;;;0.04;100.00;151379.94;5009845;28;20445;-89
2021/01/02 10:21:12;;;;;;;25.57;14.17;;;;;;;0.05;100.00;151382.50;5010658;28;20766;-89
2021/01/02 10:23:47;;;;;;;28.80;16.77;;;;;;;0.15;100.00;151408.19;5010300;28;20449;-89
2021/01/02 10:26:24;;;;;;;20.53;14.47;;;;;;;0.26;100.00;151437.72;5010381;28;20507;-90
2021/01/02 10:29:04;;;;;;;23.23;15.53;;;;;;;0.29;100.00;151445.38;5009854;28;20449;-90
2021/01/02 10:31:39;;;;;;;24.67;15.10;;;;;;;0.36;100.00;151462.09;5010067;28;20445;-90
2021/01/02 10:34:15;;;;;;;24.43;14.37;;;;;;;0.30;100.00;151446.66;4995046;28;20797;-90
2021/01/02 10:36:51;;;;;;;20.70;13.37;;;;;;;0.25;100.00;151435.13;5010512;28;20432;-90
2021/01/02 10:39:26;;;;;;;21.50;14.13;;;;;;;0.30;100.00;151446.66;4995247;28;20458;-91
2021/01/02 10:42:02;;;;;;;21.13;13.80;;;;;;;0.29;100.00;151444.13;5010063;28;20477;-90
2021/01/02 10:44:38;;;;;;;20.00;14.07;;;;;;;0.24;100.00;151432.53;5009972;28;20481;-90
2021/01/02 10:47:17;;;;;;;21.13;13.20;;;;;;;0.30;100.00;151446.66;4994785;28;20474;-91
2021/01/02 10:49:53;;;;;;;21.60;12.83;;;;;;;0.39;100.00;151471.09;5009761;28;20459;-91
2021/01/02 10:52:30;;;;;;;20.90;12.70;;;;;;;0.49;100.00;151495.44;5010051;28;20455;-91
2021/01/02 10:55:07;;;;;;;22.00;13.73;;;;;;;0.53;100.00;151505.75;5009733;28;20440;-92
2021/01/02 10:57:43;;;;;;;21.63;12.93;;;;;;;0.51;100.00;151500.56;4994749;28;20987;-91
2021/01/02 11:00:20;;;;;;;19.20;13.10;;;;;;;0.47;100.00;151490.34;5009545;28;20446;-91
2021/01/02 11:02:55;;;;;;;22.67;15.10;;;;;;;0.51;100.00;151501.88;5010260;28;20448;-90
2021/01/02 11:05:30;;;;;;;23.40;13.90;;;;;;;0.46;100.00;151487.75;5010638;28;20464;-81
2021/01/02 11:08:06;;;;;;;22.90;13.87;;;;;;;0.38;100.00;151467.19;5010716;28;20828;-90
2021/01/02 11:10:44;;;;;;;18.90;13.10;;;;;;;0.25;100.00;151433.84;4995230;28;20445;-92
2021/01/02 11:13:20;;;;;;;21.73;14.40;;;;;;;0.30;100.00;151446.66;5010348;28;20536;-91
2021/01/02 11:15:55;;;;;;;19.80;13.40;;;;;;;0.40;100.00;151472.31;4994698;28;20441;-92
2021/01/02 11:18:32;;;;;;;20.37;12.60;;;;;;;0.50;100.00;151498.03;4994906;28;20554;-90
2021/01/02 11:21:09;;;;;;;23.73;13.60;;;;;;;0.48;100.00;151492.88;4994451;28;20438;-89
2021/01/02 11:23:44;;;;;;;18.90;13.20;;;;;;;0.48;100.00;151492.88;4993751;28;20455;-89
2021/01/02 11:26:20;;;;;;;23.10;13.70;;;;;;;0.51;100.00;151500.56;5008825;28;20474;-89
2021/01/02 11:28:56;;;;;;;18.23;12.93;;;;;;;0.52;100.00;151504.47;5009318;28;20446;-91
2021/01/02 11:31:34;;;;;;;18.20;13.87;;;;;;;0.42;100.00;151478.78;5009584;28;20464;-91
2021/01/02 11:34:09;;;;;;;21.40;14.27;;;;;;;0.42;100.00;151478.78;4994382;28;20457;-91
2021/01/02 11:36:48;;;;;;;19.57;13.53;;;;;;;0.42;100.00;151477.50;4997139;28;20430;-91
2021/01/02 11:39:24;;;;;;;20.70;14.17;;;;;;;0.42;100.00;151478.78;5013152;28;20461;-91
2021/01/02 11:42:00;;;;;;;24.27;14.93;;;;;;;0.44;100.00;151482.63;5012980;28;20840;-91
2021/01/02 11:44:37;;;;;;;23.40;15.20;;;;;;;0.48;100.00;151492.88;5015177;28;20462;-91
2021/01/02 11:47:13;;;;;;;23.80;15.10;;;;;;;0.45;100.00;151486.44;5023030;28;20463;-91
2021/01/02 11:49:49;;;;;;;25.03;14.67;;;;;;;0.49;100.00;151496.75;5001700;28;20439;-89
2021/01/02 11:52:24;;;;;;;23.73;15.87;;;;;;;0.44;100.00;151483.91;5005928;28;20473;-90
2021/01/02 11:54:59;;;;;;;21.03;14.43;;;;;;;0.48;100.00;151492.88;5013510;28;20813;-90
2021/01/02 11:57:34;;;;;;;25.13;14.37;;;;;;;0.49;100.00;151495.44;5013503;28;20434;-90
2021/01/02 12:00:12;;;;;;;21.30;14.40;;;;;;;0.54;100.00;151509.59;5012154;28;20448;-90
2021/01/02 12:02:48;;;;;;;22.43;13.97;;;;;;;0.51;100.00;151501.88;5011921;28;20441;-90
2021/01/02 12:05:23;;;;;;;19.33;14.17;;;;;;;0.51;100.00;151501.88;5011346;28;20496;-90